METAR Data
IDs: Format: Raw Decoded Include TAF

Data at: 1112 UTC 26 Sep 2018

KLIT 261053Z 00000KT 7SM BKN090 21/21 A3001 RMK AO2 SLP163 T02060206
KLIT 260953Z 18003KT 7SM SCT095 21/21 A3000 RMK AO2 SLP159 T02060206
KLIT 260853Z 27003KT 10SM BKN095 21/21 A3000 RMK AO2 SLP157 T02110211 58006
KLIT 260753Z 00000KT 10SM OVC100 21/21 A3001 RMK AO2 SLP160 T02110211
KLIT 260653Z 00000KT 10SM BKN100 21/21 A3002 RMK AO2 SLP163 T02060206
KLIT 260553Z 21004KT 10SM BKN095 21/21 A3001 RMK AO2 SLP163 60023 T02110211 10261 20211 403060200 55007
KLIT 260453Z 13006KT 10SM FEW065 OVC095 21/21 A3001 RMK AO2 RAE48 SLP163 P0000 T02110211
KLIT 260353Z 22003KT 10SM -RA BKN075 OVC090 22/22 A3003 RMK AO2 SLP168 P0013 T02170217
KLIT 260253Z 24009KT 4SM RA BR SCT012 BKN040 OVC090 22/22 A3004 RMK AO2 RAB07 SLP171 P0010 60010 T02170217 53030
KLIT 260153Z 23009KT 10SM SCT060 BKN090 BKN120 25/23 A2999 RMK AO2 SLP155 T02500233
KLIT 260053Z 14003KT 10SM FEW055 BKN120 26/22 A2996 RMK AO2 SLP145 T02560222
KLIT 252353Z 17005KT 10SM SCT120 26/22 A2994 RMK AO2 SLP140 TCU DSNT SW T02610222 10306 20261 53005
KLIT 252253Z 17006KT 10SM FEW040 SCT110 29/22 A2993 RMK AO2 SLP134 T02890217
KLIT 252153Z 21006KT 10SM FEW032 SCT120 30/21 A2992 RMK AO2 SLP130 T03000211
KLIT 252053Z 24003KT 10SM FEW042 SCT100 30/21 A2993 RMK AO2 SLP134 T03000211 56020
KLIT 251953Z 24005KT 10SM SCT040 BKN070 30/22 A2995 RMK AO2 SLP140 T03000217
KLIT 251853Z 24007KT 10SM BKN035 29/22 A2997 RMK AO2 SLP148 T02890217
KLIT 251753Z 23010KT 10SM SCT025 BKN035 29/23 A2999 RMK AO2 SLP154 60000 T02890228 10289 20200 58004
KLIT 251745Z 23008KT 10SM SCT025 BKN035 29/22 A2999 RMK AO2 T02890222
KLIT 251653Z 23007KT 10SM BKN018 27/23 A2999 RMK AO2 SLP155 T02670228
KLIT 251646Z 25008KT 10SM BKN018 27/23 A2999 RMK AO2 T02720233
KLIT 251602Z 23005KT 10SM SCT014 SCT055 26/23 A3000 RMK AO2 T02560233
KLIT 251553Z 20006KT 10SM SCT035 BKN055 25/23 A3000 RMK AO2 SLP159 T02500228
KLIT 251453Z 21004KT 10SM SCT035 OVC055 23/22 A3000 RMK AO2 RAB1359E08 SLP159 P0000 60000 T02280222 53007
KLIT 251353Z 16006KT 10SM FEW005 BKN035 22/22 A2999 RMK AO2 SLP155 T02220217
KLIT 251315Z 16005KT 7SM SCT005 BKN035 21/21 A2999 RMK AO2 T02110211 $
KLIT 251253Z 15004KT 6SM BR SCT040 21/21 A2998 RMK AO2 SLP154 T02110211 $
KLIT 251153Z 00000KT 5SM BR FEW005 FEW050 SCT150 21/21 A2998 RMK AO2 SLP152 70004 T02060206 10233 20200 51013 $
KLIT 251053Z 00000KT 3SM BR BCFG FEW005 20/20 A2997 RMK AO2 SLP150 T02000200 $
KLIT 250953Z 00000KT 4SM BR FEW005 21/21 A2996 RMK AO2 SLP146 T02110211 $
KLIT 250853Z 20005KT 7SM FEW050 21/21 A2994 RMK AO2 SLP139 T02110211 52010 $
KLIT 250753Z 24005KT 6SM BR SCT055 23/23 A2993 RMK AO2 SLP135 T02280228 $
KLIT 250653Z 20006KT 5SM BR SCT060 23/23 A2992 RMK AO2 SLP132 T02280228 $
KLIT 250553Z 16005KT 7SM BKN048 OVC060 23/23 A2991 RMK AO2 SLP129 60000 T02330233 10256 20228 402720183 50002 $
KLIT 250453Z 00000KT 7SM FEW022 BKN048 OVC060 23/23 A2992 RMK AO2 SLP132 T02330233 $
KLIT 250353Z 14003KT 10SM SCT055 23/23 A2992 RMK AO2 SLP132 T02330233 $
KLIT 250253Z 12003KT 10SM FEW060 SCT090 BKN110 24/24 A2990 RMK AO2 RAB24E29DZB29E34 SLP127 P0000 60000 T02390239 53010 $
KLIT 250153Z 00000KT 10SM SCT030 BKN043 OVC070 24/24 A2990 RMK AO2 SLP124 T02440244 $
KLIT 250053Z 09003KT 10SM SCT032 BKN050 OVC065 24/24 A2988 RMK AO2 SLP119 T02440239 $
KLIT 242353Z 00000KT 10SM SCT025TCU BKN070 BKN250 26/24 A2988 RMK AO2 SLP117 TCU W-NW AND DSNT NE AND E AND SE 60004 T02560244 10272 20244 55000 $